Time;durP1;ratioP1;P1;durP2;ratioP2;P2;SDS_P1;SDS_P2;PMS_P1;PMS_P2;Temp;Humidity;BMP_temperature;BMP_pressure;BME280_temperature;BME280_humidity;BME280_pressure;Samples;Min_cycle;Max_cycle;Signal;HPM_P1;HPM_P2
2022/12/18 00:01:37;;;;;;;13.02;9.13;;;;;;;4.78;100.00;99449.06;4966486;28;20130;-64
2022/12/18 00:04:06;;;;;;;13.95;8.88;;;;;;;4.68;100.00;99445.38;4995265;28;20031;-62
2022/12/18 00:06:32;;;;;;;14.70;9.02;;;;;;;4.68;100.00;99456.50;4961669;28;20124;-64
2022/12/18 00:08:59;;;;;;;13.73;8.70;;;;;;;4.71;100.00;99448.63;4960942;28;20030;-63
2022/12/18 00:11:26;;;;;;;13.07;9.02;;;;;;;4.69;100.00;99458.19;4979928;28;20048;-65
2022/12/18 00:13:54;;;;;;;12.98;8.98;;;;;;;4.64;100.00;99460.19;4994002;28;20374;-64
2022/12/18 00:16:21;;;;;;;15.35;9.63;;;;;;;4.61;100.00;99453.44;4979913;28;20048;-64
2022/12/18 00:18:48;;;;;;;13.07;9.18;;;;;;;4.66;100.00;99466.06;4968439;28;20128;-66
2022/12/18 00:21:13;;;;;;;14.05;9.40;;;;;;;4.70;100.00;99464.97;4997438;28;20034;-61
2022/12/18 00:23:40;;;;;;;15.15;9.43;;;;;;;4.71;100.00;99479.53;4987273;28;20548;-67
2022/12/18 00:26:27;;;;;;;13.68;9.48;;;;;;;4.65;100.00;99491.91;4979346;28;20042;-60
2022/12/18 00:28:55;;;;;;;14.45;9.70;;;;;;;4.69;100.00;99491.66;5008167;28;20022;-65
2022/12/18 00:31:22;;;;;;;12.70;8.43;;;;;;;4.75;100.00;99490.50;4974218;28;20030;-62
2022/12/18 00:33:48;;;;;;;13.00;8.77;;;;;;;4.68;100.00;99484.03;4978879;28;20041;-62
2022/12/18 00:36:17;;;;;;;12.18;8.07;;;;;;;4.40;100.00;99432.31;4961304;28;20038;-64
2022/12/18 00:38:43;;;;;;;13.88;9.18;;;;;;;4.66;100.00;99483.28;4978441;28;20033;-61
2022/12/18 00:41:10;;;;;;;12.40;8.50;;;;;;;4.72;100.00;99494.06;4969574;28;20035;-61
2022/12/18 00:43:36;;;;;;;11.23;7.72;;;;;;;4.58;100.00;99483.69;4963004;28;20493;-68
2022/12/18 00:46:02;;;;;;;13.68;8.23;;;;;;;4.65;100.00;99503.03;4963956;28;20053;-64
2022/12/18 00:48:27;;;;;;;14.13;8.77;;;;;;;4.58;100.00;99483.69;4981243;28;20101;-63
2022/12/18 00:50:53;;;;;;;14.10;8.50;;;;;;;4.56;100.00;99482.94;4983634;28;20030;-63
2022/12/18 00:53:18;;;;;;;12.93;7.88;;;;;;;4.68;100.00;99499.47;4982348;28;20030;-64
2022/12/18 00:55:45;;;;;;;12.18;7.90;;;;;;;4.71;100.00;99507.03;4967837;28;20058;-68
2022/12/18 00:58:12;;;;;;;13.75;8.30;;;;;;;4.75;100.00;99505.97;4966486;28;20140;-63
2022/12/18 01:00:38;;;;;;;11.40;8.05;;;;;;;4.71;100.00;99507.88;4980970;28;20026;-61
2022/12/18 01:03:04;;;;;;;12.30;8.73;;;;;;;4.73;100.00;99511.19;4984858;28;20698;-63
2022/12/18 01:05:30;;;;;;;11.38;7.75;;;;;;;4.74;100.00;99512.00;4958165;28;20730;-62
2022/12/18 01:07:56;;;;;;;10.45;7.05;;;;;;;4.71;100.00;99517.31;4967163;28;20038;-64
2022/12/18 01:10:22;;;;;;;12.77;8.07;;;;;;;4.71;100.00;99525.06;4998180;28;20030;-62
2022/12/18 01:12:48;;;;;;;11.73;7.15;;;;;;;4.67;100.00;99524.38;4983417;28;20111;-63
2022/12/18 01:15:14;;;;;;;11.38;7.55;;;;;;;4.71;100.00;99522.47;4996262;28;20026;-65
2022/12/18 01:17:40;;;;;;;12.63;8.25;;;;;;;4.81;100.00;99534.75;4963994;28;20037;-65
2022/12/18 01:20:07;;;;;;;12.25;7.70;;;;;;;4.78;100.00;99534.97;4965671;28;20666;-64
2022/12/18 01:22:32;;;;;;;10.68;7.15;;;;;;;4.77;100.00;99535.88;4983529;28;20036;-63
2022/12/18 01:24:58;;;;;;;12.35;8.05;;;;;;;4.72;100.00;99521.56;4985269;28;20034;-62
2022/12/18 01:27:23;;;;;;;11.18;7.25;;;;;;;4.75;100.00;99535.13;4996446;28;20114;-60
2022/12/18 01:29:49;;;;;;;11.40;7.57;;;;;;;4.85;100.00;99539.75;4979799;28;20034;-64
2022/12/18 01:32:14;;;;;;;10.70;6.95;;;;;;;4.55;100.00;99510.47;4978850;28;20113;-65
2022/12/18 01:34:40;;;;;;;11.52;7.18;;;;;;;4.81;100.00;99544.25;4979328;28;20026;-68
2022/12/18 01:37:05;;;;;;;10.38;6.78;;;;;;;4.80;100.00;99546.00;4968742;28;20473;-63
2022/12/18 01:39:31;;;;;;;10.18;6.88;;;;;;;4.57;100.00;99510.38;4995053;28;20069;-64
2022/12/18 01:42:01;;;;;;;10.95;6.68;;;;;;;4.80;100.00;99550.31;4965668;28;20057;-64
2022/12/18 01:44:45;;;;;;;;;;;;;;;4.81;100.00;99570.84;4996138;28;20098;-63
2022/12/18 01:47:18;;;;;;;10.02;6.25;;;;;;;4.55;100.00;99522.50;4983085;28;19918;-66
2022/12/18 01:49:44;;;;;;;10.57;7.00;;;;;;;4.78;100.00;99559.88;4962038;28;20062;-64
2022/12/18 01:52:09;;;;;;;10.05;6.38;;;;;;;4.74;100.00;99558.38;4983555;28;20062;-64
2022/12/18 01:54:35;;;;;;;11.18;6.35;;;;;;;4.76;100.00;99561.72;4995230;28;20409;-66
2022/12/18 01:57:00;;;;;;;10.35;7.07;;;;;;;4.56;100.00;99545.63;4967944;28;20559;-65
2022/12/18 01:59:27;;;;;;;11.35;6.93;;;;;;;4.43;100.00;99531.72;4989780;28;20034;-66
2022/12/18 02:01:52;;;;;;;10.13;6.53;;;;;;;4.63;100.00;99569.28;4978282;28;20034;-65
2022/12/18 02:04:24;;;;;;;12.13;6.63;;;;;;;4.63;100.00;99566.69;4981061;28;20125;-62
2022/12/18 02:07:03;;;;;;;9.35;5.57;;;;;;;4.69;100.00;99568.97;4963100;28;20642;-67
2022/12/18 02:09:36;;;;;;;8.00;5.22;;;;;;;4.68;100.00;99564.72;4966469;28;20038;-61
2022/12/18 02:12:23;;;;;;;10.40;6.45;;;;;;;4.65;100.00;99564.88;4958857;28;20038;-63
2022/12/18 02:15:10;;;;;;;10.02;6.45;;;;;;;4.66;100.00;99561.38;4969673;28;20054;-62
2022/12/18 02:17:37;;;;;;;9.43;6.25;;;;;;;4.67;100.00;99560.47;5003810;28;20038;-64
2022/12/18 02:20:28;;;;;;;10.15;6.53;;;;;;;4.65;100.00;99561.47;4979938;28;21564;-64
2022/12/18 02:22:54;;;;;;;11.88;6.78;;;;;;;4.60;100.00;99562.56;4980314;28;20054;-66
2022/12/18 02:25:53;;;;;;;8.50;6.28;;;;;;;4.60;100.00;99569.47;4979403;28;20125;-64
2022/12/18 02:28:20;;;;;;;10.60;6.90;;;;;;;4.50;100.00;99573.44;4987187;28;20072;-62
2022/12/18 02:30:48;;;;;;;12.10;7.13;;;;;;;4.46;100.00;99564.22;5004670;28;20112;-64
2022/12/18 02:33:14;;;;;;;10.95;7.13;;;;;;;4.53;100.00;99565.56;5001851;28;20145;-62
2022/12/18 02:35:40;;;;;;;11.80;6.50;;;;;;;4.58;100.00;99569.53;4989212;28;20060;-64
2022/12/18 02:38:06;;;;;;;9.07;6.07;;;;;;;4.31;100.00;99540.09;4984853;28;20069;-61
2022/12/18 02:40:31;;;;;;;10.52;6.35;;;;;;;4.53;100.00;99584.41;4963385;28;20064;-63
2022/12/18 02:43:17;;;;;;;10.25;6.25;;;;;;;4.55;100.00;99586.91;5004687;28;20068;-62
2022/12/18 02:45:50;;;;;;;10.10;5.85;;;;;;;4.56;100.00;99597.13;4982526;28;20042;-62
2022/12/18 02:48:18;;;;;;;9.63;5.35;;;;;;;4.26;100.00;99562.72;4980861;28;20030;-64
2022/12/18 02:51:14;;;;;;;9.05;5.68;;;;;;;4.47;100.00;99594.19;4980179;28;20026;-67
2022/12/18 02:53:45;;;;;;;9.73;6.47;;;;;;;4.52;100.00;99597.38;4999699;28;20153;-67
2022/12/18 02:56:18;;;;;;;9.25;5.95;;;;;;;4.45;100.00;99578.81;4980928;28;20034;-63
2022/12/18 02:58:56;;;;;;;8.88;5.53;;;;;;;4.47;100.00;99597.59;4982011;28;20034;-67
2022/12/18 03:01:30;;;;;;;9.30;6.13;;;;;;;4.46;100.00;99601.09;4981739;28;20045;-66
2022/12/18 03:03:59;;;;;;;9.32;6.10;;;;;;;4.43;100.00;99602.09;4980079;28;20113;-67
2022/12/18 03:06:41;;;;;;;9.40;5.75;;;;;;;4.49;100.00;99600.94;4985052;28;20061;-64
2022/12/18 03:09:09;;;;;;;9.95;6.40;;;;;;;4.42;100.00;99594.47;5010171;28;20042;-64
2022/12/18 03:14:24;;;;;;;10.10;6.03;;;;;;;4.41;100.00;99605.66;5000535;28;20049;-62
2022/12/18 03:16:53;;;;;;;10.13;5.65;;;;;;;4.43;100.00;99612.41;5011342;28;20031;-63
2022/12/18 03:19:22;;;;;;;9.55;5.95;;;;;;;4.14;100.00;99564.19;4997268;28;20026;-60
2022/12/18 03:21:51;;;;;;;10.07;6.35;;;;;;;4.37;100.00;99614.47;4980031;28;20362;-64
2022/12/18 03:24:18;;;;;;;9.60;5.70;;;;;;;4.42;100.00;99618.47;4997411;28;20033;-66
2022/12/18 03:26:46;;;;;;;9.50;5.93;;;;;;;4.36;100.00;99621.38;4982471;28;20038;-66
2022/12/18 03:29:26;;;;;;;8.85;5.47;;;;;;;4.38;100.00;99613.53;4994644;28;20032;-66
2022/12/18 03:31:55;;;;;;;8.57;5.70;;;;;;;4.38;100.00;99616.13;4961185;28;20038;-60
2022/12/18 03:34:24;;;;;;;9.43;5.68;;;;;;;4.46;100.00;99618.31;5016267;28;20038;-66
2022/12/18 03:36:49;;;;;;;10.13;6.18;;;;;;;4.38;100.00;99616.97;4965676;28;20073;-63
2022/12/18 03:39:15;;;;;;;9.43;5.95;;;;;;;4.40;100.00;99619.47;5001675;28;20120;-69
2022/12/18 03:41:45;;;;;;;8.38;4.97;;;;;;;4.43;100.00;99622.72;4975903;28;20073;-64
2022/12/18 03:44:25;;;;;;;9.65;5.53;;;;;;;4.39;100.00;99617.78;4985371;28;20049;-63
2022/12/18 03:47:15;;;;;;;9.88;5.72;;;;;;;4.11;100.00;99578.03;4980889;28;20046;-63
2022/12/18 03:49:56;;;;;;;9.88;5.63;;;;;;;4.34;100.00;99624.91;5012545;28;20104;-63
2022/12/18 03:52:48;;;;;;;9.07;5.63;;;;;;;4.42;100.00;99633.09;4980032;28;20035;-62
2022/12/18 03:55:13;;;;;;;9.38;5.85;;;;;;;4.41;100.00;99628.84;4980776;28;20074;-62
2022/12/18 03:57:39;;;;;;;9.82;5.60;;;;;;;4.45;100.00;99645.78;4979939;28;20730;-62
2022/12/18 04:00:13;;;;;;;8.90;5.50;;;;;;;4.41;100.00;99636.56;4960490;28;20046;-64
2022/12/18 04:02:43;;;;;;;10.82;5.40;;;;;;;4.39;100.00;99639.22;4981585;28;20056;-61
2022/12/18 04:05:09;;;;;;;10.02;5.60;;;;;;;4.47;100.00;99637.97;4980313;28;20030;-66
2022/12/18 04:07:36;;;;;;;9.38;5.57;;;;;;;4.39;100.00;99646.94;4997651;28;20117;-71
2022/12/18 04:10:04;;;;;;;7.90;5.18;;;;;;;4.36;100.00;99661.72;4982640;28;20118;-61
2022/12/18 04:12:30;;;;;;;8.75;5.20;;;;;;;4.32;100.00;99655.91;4964811;28;20046;-64
2022/12/18 04:14:55;;;;;;;9.82;5.35;;;;;;;4.26;100.00;99650.25;4982628;28;20117;-64
2022/12/18 04:17:21;;;;;;;7.57;4.78;;;;;;;4.32;100.00;99660.22;4963747;28;20046;-61
2022/12/18 04:19:47;;;;;;;9.63;6.13;;;;;;;4.26;100.00;99661.38;4979810;28;20041;-63
2022/12/18 04:22:12;;;;;;;9.55;5.28;;;;;;;4.21;100.00;99664.16;4996436;28;20089;-65
2022/12/18 04:24:38;;;;;;;8.57;5.00;;;;;;;4.22;100.00;99667.59;5000033;28;20488;-65
2022/12/18 04:27:03;;;;;;;8.80;5.28;;;;;;;4.25;100.00;99680.28;5002770;28;20073;-63
2022/12/18 04:29:29;;;;;;;10.00;5.13;;;;;;;4.23;100.00;99680.41;4983089;28;20525;-63
2022/12/18 04:31:54;;;;;;;8.20;5.43;;;;;;;4.32;100.00;99689.38;4983825;28;20847;-64
2022/12/18 04:34:20;;;;;;;8.25;5.25;;;;;;;4.29;100.00;99689.53;4983189;28;20060;-65
2022/12/18 04:36:46;;;;;;;8.40;5.03;;;;;;;4.24;100.00;99689.75;4982353;28;20056;-70
2022/12/18 04:39:11;;;;;;;8.75;5.45;;;;;;;4.18;100.00;99690.09;4979074;28;20482;-62
2022/12/18 04:41:37;;;;;;;7.18;4.35;;;;;;;4.32;100.00;99696.28;4997997;28;20054;-64
2022/12/18 04:44:03;;;;;;;10.38;5.35;;;;;;;4.04;100.00;99653.91;5016690;28;20593;-60
2022/12/18 04:46:28;;;;;;;9.30;5.22;;;;;;;4.23;100.00;99684.69;4979071;28;20038;-63
2022/12/18 04:48:54;;;;;;;8.00;4.22;;;;;;;4.24;100.00;99692.34;4983190;28;20037;-64
2022/12/18 04:51:19;;;;;;;8.70;4.90;;;;;;;4.24;100.00;99699.25;4984333;28;20622;-64
2022/12/18 04:53:45;;;;;;;7.72;4.85;;;;;;;4.24;100.00;99706.97;4982071;28;20478;-61
2022/12/18 04:56:13;;;;;;;9.30;4.63;;;;;;;3.97;100.00;99679.13;4982345;28;20027;-64
2022/12/18 04:58:39;;;;;;;7.80;4.82;;;;;;;3.98;100.00;99677.38;4982938;28;20022;-64
2022/12/18 05:01:05;;;;;;;8.35;5.15;;;;;;;4.28;100.00;99718.75;4968894;28;20155;-62
2022/12/18 05:03:31;;;;;;;7.90;4.80;;;;;;;4.23;100.00;99713.00;4999528;28;20114;-62
2022/12/18 05:05:57;;;;;;;7.88;4.47;;;;;;;4.29;100.00;99720.44;4981874;28;20038;-63
2022/12/18 05:08:22;;;;;;;7.57;4.50;;;;;;;4.24;100.00;99727.56;4998827;28;20629;-61
2022/12/18 05:10:47;;;;;;;8.02;4.47;;;;;;;4.21;100.00;99728.53;4975849;28;20031;-63
2022/12/18 05:13:13;;;;;;;7.45;4.53;;;;;;;4.13;100.00;99724.69;4983123;28;20100;-61
2022/12/18 05:15:38;;;;;;;8.05;4.75;;;;;;;4.08;100.00;99716.38;4995645;28;20434;-64
2022/12/18 05:18:04;;;;;;;8.48;4.63;;;;;;;4.16;100.00;99730.53;4984027;28;20038;-65
2022/12/18 05:20:30;;;;;;;8.27;4.57;;;;;;;4.24;100.00;99730.13;4984352;28;20038;-64
2022/12/18 05:22:56;;;;;;;8.68;4.90;;;;;;;4.22;100.00;99731.97;4997097;28;20038;-63
2022/12/18 05:25:22;;;;;;;8.27;4.65;;;;;;;4.23;100.00;99729.31;4979410;28;20065;-65
2022/12/18 05:27:48;;;;;;;7.45;4.80;;;;;;;4.31;100.00;99738.38;4987158;28;20061;-63
2022/12/18 05:30:14;;;;;;;8.95;5.15;;;;;;;4.32;100.00;99732.31;4983109;28;20465;-62
2022/12/18 05:32:39;;;;;;;7.75;4.28;;;;;;;4.37;100.00;99745.81;4967393;28;20037;-63
2022/12/18 05:35:06;;;;;;;8.55;4.97;;;;;;;4.22;100.00;99737.94;4999116;28;20035;-62
2022/12/18 05:37:32;;;;;;;9.25;5.50;;;;;;;3.92;100.00;99691.38;4986173;28;20141;-61
2022/12/18 05:39:57;;;;;;;8.18;4.82;;;;;;;3.96;100.00;99702.34;4974030;28;20041;-64
2022/12/18 05:42:23;;;;;;;7.38;4.78;;;;;;;4.27;100.00;99755.75;5004973;28;20039;-65
2022/12/18 05:44:48;;;;;;;8.73;5.15;;;;;;;4.23;100.00;99765.34;4984787;28;20601;-62
2022/12/18 05:47:14;;;;;;;8.00;4.63;;;;;;;4.20;100.00;99759.53;4999101;28;20650;-62
2022/12/18 05:49:39;;;;;;;7.32;4.75;;;;;;;4.26;100.00;99758.38;4994242;28;20501;-64
2022/12/18 05:52:05;;;;;;;7.97;4.80;;;;;;;3.94;100.00;99701.59;4983958;28;20482;-62
2022/12/18 05:54:30;;;;;;;8.18;4.50;;;;;;;4.23;100.00;99756.78;4982060;28;20118;-67
2022/12/18 05:56:57;;;;;;;6.95;4.55;;;;;;;4.28;100.00;99757.38;4965088;28;20049;-64
2022/12/18 05:59:22;;;;;;;7.82;4.72;;;;;;;4.31;100.00;99756.38;5002091;28;20034;-61
2022/12/18 06:01:48;;;;;;;9.68;4.38;;;;;;;4.26;100.00;99759.22;4975772;28;20037;-65
2022/12/18 06:04:13;;;;;;;7.80;4.65;;;;;;;4.32;100.00;99768.38;4986172;28;20760;-65
2022/12/18 06:06:39;;;;;;;7.72;4.32;;;;;;;4.06;100.00;99723.34;4981625;28;20545;-64
2022/12/18 06:09:08;;;;;;;7.47;4.35;;;;;;;4.40;100.00;99772.22;5014573;28;20037;-64
2022/12/18 06:11:34;;;;;;;8.13;4.70;;;;;;;4.36;100.00;99772.44;4980355;28;20173;-61
2022/12/18 06:14:00;;;;;;;8.13;4.65;;;;;;;4.30;100.00;99768.44;4994469;28;20036;-64
2022/12/18 06:16:26;;;;;;;7.07;3.92;;;;;;;4.35;100.00;99774.19;4983088;28;20035;-60
2022/12/18 06:18:51;;;;;;;8.20;4.50;;;;;;;4.41;100.00;99780.78;4982145;28;20041;-63
2022/12/18 06:21:17;;;;;;;7.05;4.10;;;;;;;4.37;100.00;99779.28;5018774;28;20101;-63
2022/12/18 06:23:43;;;;;;;7.47;4.18;;;;;;;4.38;100.00;99788.66;4981325;28;20023;-64
2022/12/18 06:26:11;;;;;;;7.00;4.15;;;;;;;4.36;100.00;99796.47;4998239;28;20491;-64
2022/12/18 06:28:36;;;;;;;7.07;4.20;;;;;;;4.28;100.00;99796.00;5004559;28;20060;-64
2022/12/18 06:31:03;;;;;;;7.75;4.30;;;;;;;4.25;100.00;99793.56;4986134;28;21140;-62
2022/12/18 06:33:29;;;;;;;7.57;4.32;;;;;;;4.32;100.00;99801.84;4995930;28;20031;-66
2022/12/18 06:36:00;;;;;;;8.32;4.63;;;;;;;4.22;100.00;99797.16;4980212;28;20037;-64
2022/12/18 06:38:26;;;;;;;7.40;4.38;;;;;;;4.27;100.00;99798.66;4970830;28;20036;-62
2022/12/18 06:40:51;;;;;;;7.38;4.28;;;;;;;4.17;100.00;99806.84;4975827;28;20026;-66
2022/12/18 06:43:16;;;;;;;7.47;4.30;;;;;;;3.93;100.00;99754.81;4963396;28;20484;-64
2022/12/18 06:45:42;;;;;;;7.55;4.13;;;;;;;4.10;100.00;99812.34;4983793;28;20033;-63
2022/12/18 06:48:07;;;;;;;6.60;3.65;;;;;;;4.19;100.00;99814.47;4994861;28;20045;-65
2022/12/18 06:50:33;;;;;;;6.78;4.28;;;;;;;4.21;100.00;99807.50;4996410;28;20123;-66
2022/12/18 06:52:59;;;;;;;7.68;4.53;;;;;;;4.15;100.00;99820.69;4996022;28;20076;-62
2022/12/18 06:55:25;;;;;;;8.25;4.10;;;;;;;4.12;100.00;99801.06;4992071;28;20030;-64
2022/12/18 06:57:50;;;;;;;6.50;3.85;;;;;;;4.17;100.00;99822.28;4990645;28;20100;-64
2022/12/18 07:00:16;;;;;;;6.88;3.75;;;;;;;4.18;100.00;99828.25;4996885;28;20038;-67
2022/12/18 07:02:42;;;;;;;8.48;4.63;;;;;;;4.15;100.00;99828.41;4980466;28;20034;-65
2022/12/18 07:05:07;;;;;;;6.95;3.95;;;;;;;4.16;99.88;99833.50;4982641;28;20060;-64
2022/12/18 07:07:36;;;;;;;6.82;3.92;;;;;;;4.21;98.77;99838.41;4980849;28;20038;-62
2022/12/18 07:10:02;;;;;;;7.18;4.13;;;;;;;4.20;98.83;99842.75;4979004;28;20022;-61
2022/12/18 07:12:28;;;;;;;6.10;3.63;;;;;;;4.15;98.89;99836.16;4981295;28;20050;-61
2022/12/18 07:14:53;;;;;;;7.35;3.70;;;;;;;4.22;100.00;99853.78;4981686;28;20138;-61
2022/12/18 07:17:19;;;;;;;6.50;3.65;;;;;;;4.22;99.13;99855.53;4978314;28;20038;-60
2022/12/18 07:19:44;;;;;;;8.20;3.83;;;;;;;4.15;97.45;99857.56;4983832;28;20022;-63
2022/12/18 07:22:10;;;;;;;6.00;3.53;;;;;;;4.16;95.94;99864.41;4980505;28;20038;-65
2022/12/18 07:24:35;;;;;;;7.32;3.33;;;;;;;4.16;96.31;99869.53;4980825;28;20763;-66
2022/12/18 07:27:01;;;;;;;6.20;3.47;;;;;;;4.09;96.42;99864.72;4998252;28;20080;-64
2022/12/18 07:29:27;;;;;;;7.18;3.30;;;;;;;4.06;94.79;99870.88;4986275;28;20038;-64
2022/12/18 07:31:52;;;;;;;6.53;3.33;;;;;;;4.07;93.46;99885.44;4990267;28;20577;-65
2022/12/18 07:34:18;;;;;;;6.65;3.40;;;;;;;4.14;95.52;99897.06;4985178;28;20441;-63
2022/12/18 07:36:43;;;;;;;8.95;4.00;;;;;;;4.20;94.37;99896.81;4996117;28;20717;-62
2022/12/18 07:39:11;;;;;;;6.28;3.50;;;;;;;4.18;94.50;99911.50;4985969;28;20030;-65
2022/12/18 07:41:36;;;;;;;6.57;3.45;;;;;;;4.20;94.56;99907.09;4989693;28;20058;-64
2022/12/18 07:44:02;;;;;;;5.78;2.67;;;;;;;4.23;94.59;99906.97;4979728;28;20054;-65
2022/12/18 07:46:27;;;;;;;6.57;3.30;;;;;;;4.23;92.83;99919.84;4975289;28;20030;-63
2022/12/18 07:48:53;;;;;;;5.70;2.92;;;;;;;4.28;91.97;99924.75;4998168;28;20030;-61
2022/12/18 07:51:18;;;;;;;6.93;3.47;;;;;;;4.16;91.75;99925.31;4983160;28;20057;-64
2022/12/18 07:53:44;;;;;;;6.57;3.20;;;;;;;4.23;91.84;99929.28;4987076;28;20579;-66
2022/12/18 07:56:11;;;;;;;6.00;3.28;;;;;;;4.17;92.35;99922.69;4997900;28;20607;-62
2022/12/18 07:58:36;;;;;;;8.00;3.58;;;;;;;4.18;92.92;99936.38;4986554;28;20149;-66
2022/12/18 08:01:08;;;;;;;6.85;3.63;;;;;;;4.16;93.52;99936.47;4991911;28;20049;-64
2022/12/18 08:03:33;;;;;;;6.95;4.15;;;;;;;4.12;93.64;99940.06;4965926;28;20040;-63
2022/12/18 08:06:04;;;;;;;7.25;3.53;;;;;;;3.82;93.26;99880.59;4981671;28;20033;-67
2022/12/18 08:08:30;;;;;;;6.95;3.70;;;;;;;4.18;93.90;99947.53;4991709;28;20066;-62
2022/12/18 08:10:57;;;;;;;7.00;3.55;;;;;;;4.19;94.33;99945.78;5017645;28;20460;-63
2022/12/18 08:13:22;;;;;;;7.95;3.55;;;;;;;4.25;94.78;99942.91;4983293;28;20049;-63
2022/12/18 08:16:06;;;;;;;6.78;3.45;;;;;;;4.18;94.63;99942.38;4978120;28;20042;-64
2022/12/18 08:18:36;;;;;;;7.20;3.15;;;;;;;4.09;94.60;99945.38;4968152;28;20038;-66
2022/12/18 08:21:23;;;;;;;6.82;3.40;;;;;;;4.21;95.20;99956.84;4988549;28;20513;-63
2022/12/18 08:23:50;;;;;;;6.03;3.30;;;;;;;4.03;94.12;99923.34;4984819;28;20034;-63
2022/12/18 08:26:16;;;;;;;8.15;3.50;;;;;;;4.14;94.59;99966.56;4970705;28;20046;-66
2022/12/18 08:28:42;;;;;;;5.93;3.35;;;;;;;3.89;95.95;99909.41;4972375;28;20032;-65
2022/12/18 08:31:08;;;;;;;7.68;3.30;;;;;;;4.26;96.58;99956.66;4997546;28;20090;-65
2022/12/18 08:33:35;;;;;;;6.32;3.65;;;;;;;4.24;96.72;99946.41;4984670;28;20076;-62
2022/12/18 08:36:01;;;;;;;6.97;3.00;;;;;;;4.26;96.58;99954.06;4971321;28;20117;-62
2022/12/18 08:38:26;;;;;;;6.57;3.25;;;;;;;4.22;96.62;99938.75;4984017;28;20077;-62
2022/12/18 08:41:03;;;;;;;5.80;2.83;;;;;;;4.46;94.71;99963.44;4984357;28;20022;-62
2022/12/18 08:46:20;;;;;;;5.60;2.80;;;;;;;4.49;92.71;99966.69;4980559;28;20457;-62
2022/12/18 08:48:46;;;;;;;7.40;3.40;;;;;;;4.30;93.89;99959.00;4984199;28;20038;-61
2022/12/18 08:51:11;;;;;;;5.80;3.13;;;;;;;4.36;92.67;99961.28;5001167;28;20037;-64
2022/12/18 08:53:37;;;;;;;6.68;3.17;;;;;;;4.42;93.26;99968.72;4982531;28;20030;-63
2022/12/18 08:56:04;;;;;;;5.88;3.00;;;;;;;4.21;91.22;99925.94;4973411;28;20036;-63
2022/12/18 08:58:29;;;;;;;7.05;3.42;;;;;;;4.49;94.25;99981.28;4967587;28;20034;-62
2022/12/18 09:01:00;;;;;;;6.88;3.28;;;;;;;4.28;92.91;99934.22;4965324;28;20683;-62
2022/12/18 09:03:26;;;;;;;6.28;3.33;;;;;;;4.57;92.62;99990.34;4999562;28;20060;-65
2022/12/18 09:05:51;;;;;;;6.32;3.30;;;;;;;4.61;91.49;99983.28;4984897;28;20486;-62
2022/12/18 09:08:16;;;;;;;7.50;3.58;;;;;;;4.57;92.59;99980.03;4976730;28;20117;-66
2022/12/18 09:10:47;;;;;;;6.55;3.42;;;;;;;4.59;92.96;100003.97;4981777;28;20034;-61
2022/12/18 09:13:14;;;;;;;6.57;3.50;;;;;;;4.59;92.56;100009.13;4981400;28;20034;-59
2022/12/18 09:15:49;;;;;;;7.95;4.10;;;;;;;4.28;91.75;99959.97;4966531;28;20037;-63
2022/12/18 09:18:16;;;;;;;7.10;3.55;;;;;;;4.61;91.46;100006.47;4977979;28;20197;-61
2022/12/18 09:20:42;;;;;;;7.55;3.35;;;;;;;4.51;91.33;99994.94;4997295;28;20022;-63
2022/12/18 09:23:08;;;;;;;6.40;3.60;;;;;;;4.57;92.81;99994.66;4982755;28;20031;-65
2022/12/18 09:25:35;;;;;;;5.85;3.20;;;;;;;4.65;92.10;99991.72;4995198;28;20138;-63
2022/12/18 09:28:09;;;;;;;6.28;3.63;;;;;;;4.65;92.92;99986.56;4982021;28;20692;-67
2022/12/18 09:30:38;;;;;;;6.63;3.70;;;;;;;4.67;92.19;100000.19;4980818;28;20755;-62
2022/12/18 09:33:03;;;;;;;6.57;3.50;;;;;;;4.62;91.41;100003.00;4995773;28;20057;-61
2022/12/18 09:35:28;;;;;;;6.05;2.97;;;;;;;4.69;90.58;100011.28;5000389;28;20038;-60
2022/12/18 09:37:54;;;;;;;6.22;3.05;;;;;;;4.66;91.00;100011.44;4982944;28;20031;-63
2022/12/18 09:40:22;;;;;;;6.15;3.05;;;;;;;4.67;89.84;99990.72;4986288;28;20046;-62
2022/12/18 09:42:54;;;;;;;5.85;2.90;;;;;;;4.63;90.14;100000.34;4998863;28;20038;-64
2022/12/18 09:45:20;;;;;;;5.88;2.70;;;;;;;4.70;89.50;100013.78;4991268;28;20520;-63
2022/12/18 09:47:47;;;;;;;6.35;3.38;;;;;;;4.71;91.67;100012.88;4963708;28;20038;-64
2022/12/18 09:50:24;;;;;;;6.80;3.92;;;;;;;4.74;92.85;100006.72;4994724;28;20065;-63
2022/12/18 09:52:53;;;;;;;6.20;3.00;;;;;;;4.71;92.06;100005.16;4975277;28;20109;-61
2022/12/18 09:55:34;;;;;;;6.83;3.63;;;;;;;4.35;91.24;99949.31;4978121;28;20120;-64
2022/12/18 09:58:10;;;;;;;6.45;3.10;;;;;;;4.67;89.94;100003.59;4973990;28;20364;-62
2022/12/18 10:00:36;;;;;;;6.43;3.25;;;;;;;4.46;91.75;99966.00;5000143;28;20039;-62
2022/12/18 10:03:10;;;;;;;7.53;3.53;;;;;;;4.45;89.00;99947.13;4992956;28;20097;-64
2022/12/18 10:05:53;;;;;;;7.32;3.30;;;;;;;4.73;89.32;99993.03;5016167;28;20621;-63
2022/12/18 10:08:45;;;;;;;6.50;2.95;;;;;;;4.71;89.61;99994.84;4982071;28;20133;-68
2022/12/18 10:11:29;;;;;;;7.22;3.58;;;;;;;4.77;88.86;99996.28;4984393;28;20087;-65
2022/12/18 10:14:15;;;;;;;6.72;3.55;;;;;;;4.77;87.31;99989.38;5008543;28;20026;-65
2022/12/18 10:16:45;;;;;;;7.15;3.35;;;;;;;4.81;85.37;99995.22;4986785;28;20057;-64
2022/12/18 10:19:26;;;;;;;7.20;2.85;;;;;;;4.81;86.18;100003.78;5008365;28;20038;-66
2022/12/18 10:22:07;;;;;;;7.10;3.30;;;;;;;4.87;85.26;99992.34;4978833;28;20084;-67
2022/12/18 10:24:42;;;;;;;6.95;3.55;;;;;;;4.82;85.74;99989.19;4958880;28;20503;-63
2022/12/18 10:27:15;;;;;;;6.53;3.40;;;;;;;4.94;84.24;99998.03;4976477;28;20050;-67
2022/12/18 10:29:42;;;;;;;6.18;3.28;;;;;;;4.81;85.12;99983.16;4976580;28;20030;-64
2022/12/18 10:32:17;;;;;;;6.10;3.10;;;;;;;4.68;85.31;99952.94;4971190;28;20122;-64
2022/12/18 10:34:46;;;;;;;7.28;3.15;;;;;;;4.95;84.06;99981.69;4951659;28;20188;-63
2022/12/18 10:37:16;;;;;;;6.63;3.55;;;;;;;4.96;82.74;99978.19;4968054;28;20522;-62
2022/12/18 10:39:42;;;;;;;5.70;3.08;;;;;;;4.96;82.26;99975.59;4989826;28;20505;-62
2022/12/18 10:42:17;;;;;;;5.82;2.92;;;;;;;4.99;83.61;99985.78;4959823;28;20049;-68
2022/12/18 10:44:42;;;;;;;7.45;3.28;;;;;;;5.05;84.54;99989.78;4948797;28;20034;-64
2022/12/18 10:47:14;;;;;;;5.90;3.20;;;;;;;5.13;82.90;99993.66;4975093;28;20092;-64
2022/12/18 10:49:48;;;;;;;7.15;3.35;;;;;;;5.09;83.54;100001.59;4957753;28;20034;-63
2022/12/18 10:52:19;;;;;;;6.80;3.20;;;;;;;5.03;84.16;99989.84;4977291;28;20042;-63
2022/12/18 10:54:53;;;;;;;8.27;3.25;;;;;;;4.73;84.06;99954.38;4975945;28;20548;-65
2022/12/18 10:57:38;;;;;;;5.82;2.90;;;;;;;4.75;83.57;99947.41;4969034;28;20153;-64
2022/12/18 11:00:25;;;;;;;6.22;3.28;;;;;;;5.01;83.59;99989.09;4966928;28;20119;-61
2022/12/18 11:02:51;;;;;;;6.47;3.13;;;;;;;4.93;83.22;99983.50;4990976;28;20153;-64
2022/12/18 11:05:31;;;;;;;6.03;3.38;;;;;;;4.95;84.96;99992.81;4962210;28;20041;-65
2022/12/18 11:07:59;;;;;;;5.50;2.90;;;;;;;4.74;86.54;99957.78;4967058;28;20588;-64
2022/12/18 11:10:33;;;;;;;6.07;3.15;;;;;;;4.92;87.04;99981.81;4990885;28;20022;-65
2022/12/18 11:13:16;;;;;;;6.60;3.20;;;;;;;4.99;85.68;99996.06;4957291;28;20037;-65
2022/12/18 11:15:42;;;;;;;5.75;2.72;;;;;;;4.98;85.85;99989.25;4974996;28;20026;-64
2022/12/18 11:18:25;;;;;;;5.43;2.90;;;;;;;5.03;84.01;100000.16;4950063;28;20723;-63
2022/12/18 11:20:57;;;;;;;6.30;3.13;;;;;;;5.02;83.20;99998.50;4957396;28;20095;-66
2022/12/18 11:23:23;;;;;;;5.57;2.90;;;;;;;5.01;83.46;100000.25;4972956;28;20038;-65
2022/12/18 11:26:02;;;;;;;6.60;3.30;;;;;;;5.12;84.49;100022.09;4973634;28;20035;-66
2022/12/18 11:28:36;;;;;;;5.93;3.03;;;;;;;5.20;82.14;99999.31;4949732;28;20762;-64
2022/12/18 11:31:14;;;;;;;6.30;3.40;;;;;;;5.24;82.71;100000.88;4971504;28;20034;-63
2022/12/18 11:33:42;;;;;;;6.95;3.78;;;;;;;5.19;83.86;99995.09;4972305;28;20026;-62
2022/12/18 11:36:09;;;;;;;6.43;3.85;;;;;;;5.14;85.49;99987.56;4963435;28;20045;-62
2022/12/18 11:38:42;;;;;;;5.72;3.38;;;;;;;5.17;84.92;99990.00;4966190;28;20034;-64
2022/12/18 11:41:21;;;;;;;8.15;3.78;;;;;;;5.20;85.53;99989.00;4975233;28;20084;-62
2022/12/18 11:43:53;;;;;;;6.88;3.78;;;;;;;5.19;85.40;99995.91;4974077;28;20035;-61
2022/12/18 11:46:32;;;;;;;7.47;3.53;;;;;;;5.12;85.94;99981.66;4973214;28;20037;-61
2022/12/18 11:49:14;;;;;;;7.45;3.72;;;;;;;5.26;87.16;99980.97;4967023;28;20104;-60